Weather at Tanagra Air Base

Public forecast

Using degrees Celsius for public forecast. Weather courtesy of forecast.io.

Current aviation weather report (METAR) for Tanagra Air Base

Retrieved 2021/04/17 11:50 UTC (23 minutes ago):

LGTG 171150Z 00000KT 9999 FEW018 SCT030 16/09 Q1011 RMK BKN080 BLU

Closest aviation forecast (TAF) to Tanagra Air Base

Closest forecast is Elefsis Airport, 16.6 nm (30.7 km) S. Retrieved 2021/04/17 12:15 UTC (0 seconds ago):

TAF LGEL 171100Z 1712/1812 36012KT 9999 SCT025 BECMG 1720/1722 VRB05KT BECMG 1810/1812 24012KT